Terminal Aerodrome Forecast
Issued by NWS Cleveland, OH

Home | Current Version | Previous Version | Graphics & Text | Print | Product List | Glossary Off
Versions: 1 2 3 4 5 6 7 8 9 10 11 12 13 14 15 16 17 18 19

879
FTUS41 KCLE 031731
TAFERI
TAF
KERI 031731Z 0318/0418 28010KT P6SM SCT015 OVC025
     FM040600 VRB04KT P6SM BKN015 OVC020
     FM041600 14008KT P6SM SCT020 OVC200=

USA.gov is the U.S. government's official web portal to all federal, state and local government web resources and services.